Time;durP1;ratioP1;P1;durP2;ratioP2;P2;SDS_P1;SDS_P2;PMS_P1;PMS_P2;Temp;Humidity;BMP_temperature;BMP_pressure;BME280_temperature;BME280_humidity;BME280_pressure;Samples;Min_cycle;Max_cycle;Signal;HPM_P1;HPM_P2
2023/06/16 00:01:09;;;;;;;6.07;4.60;;;16.30;99.90;;;;;;5032764;28;20068;-73
2023/06/16 00:03:35;;;;;;;6.28;5.05;;;16.30;99.90;;;;;;5049558;28;20497;-72
2023/06/16 00:06:13;;;;;;;6.32;4.72;;;16.30;99.90;;;;;;5032916;28;20080;-73
2023/06/16 00:08:47;;;;;;;6.40;4.88;;;16.40;99.90;;;;;;5049515;28;20076;-73
2023/06/16 00:11:14;;;;;;;7.60;5.35;;;16.20;99.90;;;;;;5032240;28;20038;-72
2023/06/16 00:13:40;;;;;;;6.65;5.47;;;16.10;99.90;;;;;;5032793;28;20033;-73
2023/06/16 00:16:06;;;;;;;6.13;5.15;;;15.90;99.90;;;;;;5032597;28;20504;-73
2023/06/16 00:18:32;;;;;;;6.82;6.07;;;15.90;99.90;;;;;;5033097;28;20034;-73
2023/06/16 00:21:01;;;;;;;10.15;7.25;;;15.80;99.90;;;;;;5032406;28;20048;-73
2023/06/16 00:23:27;;;;;;;9.75;7.85;;;15.80;99.90;;;;;;5032824;28;20392;-73
2023/06/16 00:25:53;;;;;;;9.35;8.15;;;15.70;99.90;;;;;;5032485;28;20045;-73
2023/06/16 00:28:19;;;;;;;10.95;8.00;;;15.60;99.90;;;;;;5032473;28;20029;-73
2023/06/16 00:30:45;;;;;;;8.15;7.35;;;15.60;99.90;;;;;;5032293;28;20044;-73
2023/06/16 00:33:12;;;;;;;10.82;7.38;;;15.60;99.90;;;;;;5048501;28;20041;-73
2023/06/16 00:35:39;;;;;;;8.18;6.75;;;15.60;99.90;;;;;;5033462;28;20037;-73
2023/06/16 00:38:04;;;;;;;7.45;6.47;;;15.70;99.90;;;;;;5032252;28;20034;-73
2023/06/16 00:40:30;;;;;;;8.30;6.72;;;15.70;99.90;;;;;;5032132;28;20350;-73
2023/06/16 00:42:58;;;;;;;12.43;6.88;;;15.80;99.90;;;;;;5032276;28;20049;-74
2023/06/16 00:45:24;;;;;;;7.30;6.60;;;15.70;99.90;;;;;;5025356;28;20041;-73
2023/06/16 00:47:51;;;;;;;8.15;7.03;;;15.70;99.90;;;;;;5048591;28;20042;-74
2023/06/16 00:50:18;;;;;;;9.68;6.35;;;15.60;99.90;;;;;;5024288;28;20044;-74
2023/06/16 00:52:44;;;;;;;8.65;6.38;;;15.50;99.90;;;;;;5031707;28;20515;-73
2023/06/16 00:55:11;;;;;;;10.55;8.38;;;15.50;99.90;;;;;;5031123;28;20041;-74
2023/06/16 00:57:38;;;;;;;7.85;7.03;;;15.50;99.90;;;;;;5032244;28;20076;-73
2023/06/16 01:00:06;;;;;;;9.80;7.88;;;15.40;99.90;;;;;;5032087;28;20048;-73
2023/06/16 01:02:32;;;;;;;9.30;7.40;;;15.50;99.90;;;;;;5031470;28;20037;-73
2023/06/16 01:04:58;;;;;;;9.80;7.38;;;15.60;99.90;;;;;;5031708;28;20037;-73
2023/06/16 01:07:47;;;;;;;7.63;6.82;;;15.60;99.90;;;;;;5031754;28;20149;-73
2023/06/16 01:10:43;;;;;;;7.38;6.65;;;15.70;99.90;;;;;;5031654;28;20033;-73
2023/06/16 01:13:17;;;;;;;9.02;7.35;;;15.70;99.90;;;;;;5031493;28;20561;-73
2023/06/16 01:15:45;;;;;;;8.15;7.30;;;15.70;99.90;;;;;;5031689;28;20037;-73
2023/06/16 01:18:14;;;;;;;9.07;7.40;;;15.70;99.90;;;;;;5031741;28;20036;-73
2023/06/16 01:20:48;;;;;;;9.50;8.10;;;15.60;99.90;;;;;;5031402;28;20048;-73
2023/06/16 01:23:26;;;;;;;9.25;8.00;;;15.60;99.90;;;;;;5048005;28;20455;-73
2023/06/16 01:25:55;;;;;;;8.63;7.60;;;15.50;99.90;;;;;;5031629;28;20448;-73
2023/06/16 01:28:23;;;;;;;9.48;8.45;;;15.40;99.90;;;;;;5031362;28;20072;-74
2023/06/16 01:30:52;;;;;;;9.73;7.85;;;15.30;99.90;;;;;;5031561;28;20043;-74
2023/06/16 01:33:20;;;;;;;10.68;9.05;;;15.30;99.90;;;;;;5030952;28;20041;-74
2023/06/16 01:35:47;;;;;;;9.05;7.45;;;15.20;99.90;;;;;;5045867;28;20095;-74
2023/06/16 01:38:14;;;;;;;11.10;8.07;;;15.20;99.90;;;;;;5047837;28;20053;-73
2023/06/16 01:40:41;;;;;;;9.07;7.75;;;15.30;99.90;;;;;;5031326;28;20033;-74
2023/06/16 01:43:08;;;;;;;10.10;8.55;;;15.20;99.90;;;;;;5047293;28;20041;-74
2023/06/16 01:45:34;;;;;;;8.88;7.88;;;15.20;99.90;;;;;;5031105;28;20041;-74
2023/06/16 01:48:01;;;;;;;9.18;8.27;;;15.20;99.90;;;;;;5030920;28;20038;-74
2023/06/16 01:50:26;;;;;;;9.13;8.20;;;15.10;99.90;;;;;;5030899;28;20068;-74
2023/06/16 01:52:52;;;;;;;9.73;7.82;;;15.10;99.90;;;;;;5047089;28;20124;-74
2023/06/16 01:55:17;;;;;;;9.43;8.50;;;15.10;99.90;;;;;;5047587;28;20187;-73
2023/06/16 01:57:43;;;;;;;9.68;7.65;;;15.00;99.90;;;;;;5032300;28;20033;-74
2023/06/16 02:00:21;;;;;;;10.27;7.80;;;15.00;99.90;;;;;;5030846;28;20497;-73
2023/06/16 02:02:53;;;;;;;8.70;7.80;;;14.90;99.90;;;;;;5027018;28;20042;-74
2023/06/16 02:05:24;;;;;;;9.13;8.23;;;14.90;99.90;;;;;;5047390;28;20037;-73
2023/06/16 02:07:53;;;;;;;9.10;7.95;;;14.90;99.90;;;;;;5030654;28;20045;-74
2023/06/16 02:10:21;;;;;;;9.10;8.07;;;14.80;99.90;;;;;;5028448;28;20033;-74
2023/06/16 02:12:48;;;;;;;8.18;7.38;;;14.80;99.90;;;;;;5046834;28;20045;-74
2023/06/16 02:15:20;;;;;;;8.25;7.35;;;14.80;99.90;;;;;;5030457;28;20037;-74
2023/06/16 02:17:46;;;;;;;9.15;7.40;;;14.70;99.90;;;;;;5030631;28;20049;-73
2023/06/16 02:20:15;;;;;;;8.32;7.53;;;14.60;99.90;;;;;;5030347;28;20364;-74
2023/06/16 02:22:40;;;;;;;8.05;7.22;;;14.50;99.90;;;;;;5030408;28;20041;-74
2023/06/16 02:25:06;;;;;;;9.85;8.18;;;14.40;99.90;;;;;;5046911;28;20061;-73
2023/06/16 02:27:32;;;;;;;9.45;7.40;;;14.40;99.90;;;;;;5030347;28;20045;-74
2023/06/16 02:29:57;;;;;;;9.30;8.27;;;14.40;99.90;;;;;;5046513;28;20424;-74
2023/06/16 02:32:23;;;;;;;9.80;7.53;;;14.40;99.90;;;;;;5046750;28;20088;-74
2023/06/16 02:34:48;;;;;;;9.02;8.13;;;14.30;99.90;;;;;;5030166;28;20061;-73
2023/06/16 02:37:14;;;;;;;8.75;7.63;;;14.30;99.90;;;;;;5030230;28;20512;-74
2023/06/16 02:39:40;;;;;;;8.68;7.75;;;14.30;99.90;;;;;;5046842;28;20394;-74
2023/06/16 02:42:07;;;;;;;11.73;7.68;;;14.20;99.90;;;;;;5029681;28;20068;-74
2023/06/16 02:44:33;;;;;;;9.25;7.97;;;14.20;99.90;;;;;;5046632;28;20120;-74
2023/06/16 02:47:00;;;;;;;8.85;7.80;;;14.30;99.90;;;;;;5047099;28;20120;-74
2023/06/16 02:49:26;;;;;;;8.77;7.82;;;14.30;99.90;;;;;;5030167;28;20041;-74
2023/06/16 02:51:51;;;;;;;8.57;7.70;;;14.30;99.90;;;;;;5029731;28;20408;-74
2023/06/16 02:54:17;;;;;;;9.75;8.75;;;14.10;99.90;;;;;;5030186;28;20037;-74
2023/06/16 02:56:42;;;;;;;10.25;8.20;;;14.10;99.90;;;;;;5046408;28;20117;-73
2023/06/16 02:59:10;;;;;;;9.93;8.00;;;14.10;99.90;;;;;;5046329;28;20029;-74
2023/06/16 03:01:37;;;;;;;9.27;8.27;;;14.00;99.90;;;;;;5046205;28;20513;-75
2023/06/16 03:04:03;;;;;;;10.65;8.65;;;13.90;99.90;;;;;;5029940;28;20049;-74
2023/06/16 03:06:29;;;;;;;9.95;8.95;;;13.90;99.90;;;;;;5046819;28;20453;-74
2023/06/16 03:08:58;;;;;;;9.65;8.65;;;13.90;99.90;;;;;;5029780;28;20069;-74
2023/06/16 03:11:23;;;;;;;8.75;7.85;;;13.90;99.90;;;;;;5029679;28;20049;-74
2023/06/16 03:13:49;;;;;;;9.70;8.38;;;13.90;99.90;;;;;;5029915;28;20048;-74
2023/06/16 03:16:16;;;;;;;9.35;8.30;;;13.90;99.90;;;;;;5029586;28;20029;-74
2023/06/16 03:18:42;;;;;;;10.73;8.93;;;13.90;99.90;;;;;;5034145;28;20385;-75
2023/06/16 03:21:08;;;;;;;11.77;10.57;;;13.90;99.90;;;;;;5036062;28;20083;-74
2023/06/16 03:23:34;;;;;;;10.57;9.43;;;13.80;99.90;;;;;;5052860;28;20030;-74
2023/06/16 03:25:59;;;;;;;12.82;10.50;;;13.80;99.90;;;;;;5036127;28;20033;-74
2023/06/16 03:28:25;;;;;;;11.43;10.15;;;13.80;99.90;;;;;;5036242;28;20049;-74
2023/06/16 03:30:53;;;;;;;14.10;9.77;;;13.80;99.90;;;;;;5052572;28;20038;-74
2023/06/16 03:33:20;;;;;;;12.00;10.40;;;13.80;99.90;;;;;;5044700;28;20437;-74
2023/06/16 03:35:45;;;;;;;12.25;10.82;;;13.80;99.90;;;;;;5036315;28;20087;-74
2023/06/16 03:38:12;;;;;;;14.35;10.68;;;13.70;99.90;;;;;;5052406;28;20104;-74
2023/06/16 03:40:38;;;;;;;13.25;11.30;;;13.70;99.90;;;;;;5036224;28;20033;-74
2023/06/16 03:43:03;;;;;;;13.13;11.82;;;13.70;99.90;;;;;;5052382;28;20128;-74
2023/06/16 03:45:29;;;;;;;11.77;10.57;;;13.70;99.90;;;;;;5036002;28;20076;-74
2023/06/16 03:47:54;;;;;;;11.88;10.68;;;13.70;99.90;;;;;;5036130;28;20041;-74
2023/06/16 03:50:20;;;;;;;12.55;10.63;;;13.70;99.90;;;;;;5036229;28;20045;-75
2023/06/16 03:52:46;;;;;;;11.65;10.38;;;13.80;99.90;;;;;;5035603;28;20052;-75
2023/06/16 03:55:13;;;;;;;12.15;10.88;;;13.90;99.90;;;;;;5035952;28;20095;-75
2023/06/16 03:57:39;;;;;;;13.25;10.70;;;14.00;99.90;;;;;;5035862;28;20109;-74
2023/06/16 04:00:09;;;;;;;12.77;11.05;;;14.10;99.90;;;;;;5052599;28;20117;-74
2023/06/16 04:02:36;;;;;;;12.40;11.10;;;14.10;99.90;;;;;;5030271;28;20052;-74
2023/06/16 04:05:02;;;;;;;10.77;9.70;;;14.20;99.90;;;;;;5035755;28;20045;-74
2023/06/16 04:07:30;;;;;;;12.02;10.80;;;14.30;99.90;;;;;;5036115;28;20060;-74
2023/06/16 04:09:56;;;;;;;12.70;10.27;;;14.30;99.90;;;;;;5027622;28;20054;-74
2023/06/16 04:12:22;;;;;;;12.32;10.40;;;14.40;99.90;;;;;;5035798;28;20117;-75
2023/06/16 04:14:47;;;;;;;13.25;11.15;;;14.50;99.90;;;;;;5035909;28;20159;-75
2023/06/16 04:17:13;;;;;;;12.50;10.20;;;14.50;99.90;;;;;;5035750;28;20033;-75
2023/06/16 04:19:38;;;;;;;11.40;10.20;;;14.60;99.90;;;;;;5035936;28;20041;-74
2023/06/16 04:22:04;;;;;;;12.32;11.07;;;14.70;99.90;;;;;;5035426;28;20039;-75
2023/06/16 04:24:30;;;;;;;14.75;12.25;;;14.80;99.90;;;;;;5035701;28;20037;-75
2023/06/16 04:26:58;;;;;;;14.07;11.75;;;14.80;99.90;;;;;;5051857;28;20048;-75
2023/06/16 04:29:26;;;;;;;15.95;13.73;;;14.80;99.90;;;;;;5033335;28;20538;-75
2023/06/16 04:31:52;;;;;;;14.75;13.07;;;14.80;99.90;;;;;;5048590;28;20041;-74
2023/06/16 04:34:18;;;;;;;18.05;14.10;;;14.90;99.90;;;;;;5032444;28;20088;-75
2023/06/16 04:36:44;;;;;;;15.63;14.02;;;14.90;99.90;;;;;;5032740;28;20117;-75
2023/06/16 04:39:11;;;;;;;16.77;14.18;;;15.00;99.90;;;;;;5032233;28;20125;-74
2023/06/16 04:41:37;;;;;;;19.58;16.17;;;15.00;99.90;;;;;;5048778;28;20096;-75
2023/06/16 04:44:03;;;;;;;16.30;14.63;;;15.00;99.90;;;;;;5049001;28;20390;-75
2023/06/16 04:46:29;;;;;;;17.67;15.88;;;15.10;99.90;;;;;;5033578;28;20068;-74
2023/06/16 04:48:54;;;;;;;17.38;15.02;;;15.20;99.90;;;;;;5048995;28;20037;-75
2023/06/16 04:51:20;;;;;;;18.40;16.27;;;15.20;99.90;;;;;;5032047;28;20052;-75
2023/06/16 04:53:46;;;;;;;20.13;16.00;;;15.30;99.90;;;;;;5032038;28;20042;-74
2023/06/16 04:56:12;;;;;;;19.95;17.88;;;15.40;99.90;;;;;;5048924;28;20099;-74
2023/06/16 04:58:38;;;;;;;23.73;18.55;;;15.50;99.90;;;;;;5048931;28;20037;-74
2023/06/16 05:01:03;;;;;;;23.63;18.35;;;15.50;99.90;;;;;;5048295;28;20040;-74
2023/06/16 05:03:29;;;;;;;21.17;17.75;;;15.60;99.90;;;;;;5031778;28;20140;-75
2023/06/16 05:05:54;;;;;;;20.58;17.42;;;15.70;99.90;;;;;;5032079;28;20607;-75
2023/06/16 05:08:20;;;;;;;23.05;18.58;;;15.70;99.90;;;;;;5048364;28;20124;-74
2023/06/16 05:10:45;;;;;;;20.75;17.50;;;15.90;99.90;;;;;;5048378;28;20095;-75
2023/06/16 05:13:11;;;;;;;19.48;17.02;;;15.90;99.90;;;;;;5031455;28;20049;-74
2023/06/16 05:15:36;;;;;;;21.48;18.65;;;16.10;99.90;;;;;;5031654;28;20033;-75
2023/06/16 05:18:02;;;;;;;22.30;19.90;;;16.20;99.90;;;;;;5044362;28;20489;-74
2023/06/16 05:20:30;;;;;;;22.67;19.85;;;16.30;99.90;;;;;;5024084;28;20034;-75
2023/06/16 05:22:56;;;;;;;23.02;18.30;;;16.40;99.90;;;;;;5027178;28;20052;-75
2023/06/16 05:25:21;;;;;;;23.58;17.90;;;16.50;99.90;;;;;;5046679;28;20607;-75
2023/06/16 05:27:47;;;;;;;21.90;19.58;;;16.60;99.90;;;;;;5047710;28;20392;-75
2023/06/16 05:30:12;;;;;;;20.23;17.77;;;16.70;99.90;;;;;;5031519;28;20497;-76
2023/06/16 05:32:38;;;;;;;17.35;15.52;;;16.80;99.90;;;;;;5046094;28;20029;-75
2023/06/16 05:35:04;;;;;;;20.95;17.80;;;16.90;99.90;;;;;;5031341;28;20492;-75
2023/06/16 05:37:29;;;;;;;22.23;18.58;;;16.90;99.90;;;;;;5031316;28;20060;-76
2023/06/16 05:39:55;;;;;;;20.88;17.40;;;17.00;99.90;;;;;;5031133;28;20080;-75
2023/06/16 05:42:20;;;;;;;19.27;16.50;;;17.00;99.90;;;;;;5030612;28;20042;-76
2023/06/16 05:44:46;;;;;;;20.92;16.77;;;17.10;99.90;;;;;;5014660;28;20407;-76
2023/06/16 05:47:12;;;;;;;19.90;16.63;;;17.20;99.90;;;;;;5031008;28;20390;-76
2023/06/16 05:49:38;;;;;;;22.27;17.55;;;17.30;99.90;;;;;;5031192;28;20042;-76
2023/06/16 05:52:05;;;;;;;22.23;18.02;;;17.30;99.90;;;;;;5047045;28;20092;-75
2023/06/16 05:54:35;;;;;;;18.58;16.25;;;17.40;99.90;;;;;;5030887;28;20116;-76
2023/06/16 05:57:01;;;;;;;21.75;18.55;;;17.40;99.90;;;;;;5030714;28;20046;-76
2023/06/16 05:59:28;;;;;;;20.38;16.83;;;17.50;99.90;;;;;;5030743;28;20047;-75
2023/06/16 06:01:54;;;;;;;20.13;16.67;;;17.50;99.90;;;;;;5030348;28;20091;-76
2023/06/16 06:04:26;;;;;;;17.52;15.60;;;17.60;99.90;;;;;;5047475;28;20029;-76
2023/06/16 06:06:51;;;;;;;17.73;15.02;;;17.70;99.90;;;;;;5047487;28;20060;-76
2023/06/16 06:09:17;;;;;;;16.13;14.43;;;17.70;99.90;;;;;;5047315;28;20033;-76
2023/06/16 06:11:42;;;;;;;19.63;13.85;;;17.80;99.90;;;;;;5030437;28;20049;-76
2023/06/16 06:14:08;;;;;;;16.98;13.65;;;17.90;99.90;;;;;;5046957;28;20392;-76
2023/06/16 06:16:34;;;;;;;17.75;15.13;;;18.00;99.90;;;;;;5014453;28;20471;-75
2023/06/16 06:18:59;;;;;;;16.17;14.50;;;18.20;99.90;;;;;;5046844;28;20029;-76
2023/06/16 06:21:25;;;;;;;16.70;13.73;;;18.20;99.90;;;;;;5012474;28;20068;-76
2023/06/16 06:23:51;;;;;;;16.88;14.00;;;18.30;99.90;;;;;;5027508;28;20033;-77
2023/06/16 06:26:17;;;;;;;16.15;13.77;;;18.30;99.90;;;;;;5029096;28;20482;-77
2023/06/16 06:28:43;;;;;;;14.70;13.10;;;18.40;99.90;;;;;;5030424;28;20120;-77
2023/06/16 06:31:08;;;;;;;15.25;12.75;;;18.40;99.90;;;;;;5029676;28;20045;-77
2023/06/16 06:33:34;;;;;;;16.33;13.55;;;18.60;99.90;;;;;;5044755;28;20063;-76
2023/06/16 06:36:00;;;;;;;15.95;14.25;;;18.60;99.90;;;;;;5029834;28;20515;-75
2023/06/16 06:38:25;;;;;;;15.70;14.10;;;18.70;99.90;;;;;;5046720;28;20117;-77
2023/06/16 06:40:51;;;;;;;16.13;12.82;;;18.70;99.90;;;;;;5028959;28;20125;-76
2023/06/16 06:43:17;;;;;;;14.02;12.52;;;18.80;99.90;;;;;;5022207;28;20088;-76
2023/06/16 06:45:44;;;;;;;15.00;13.45;;;18.90;99.90;;;;;;5029785;28;20080;-76
2023/06/16 06:48:09;;;;;;;14.65;13.15;;;19.00;99.90;;;;;;5002716;28;20052;-76
2023/06/16 06:50:35;;;;;;;11.60;10.43;;;19.10;99.90;;;;;;5029973;28;20037;-76
2023/06/16 06:53:01;;;;;;;14.13;11.60;;;19.10;99.90;;;;;;5028817;28;20484;-76
2023/06/16 06:55:26;;;;;;;12.55;11.25;;;19.30;99.90;;;;;;5030537;28;20034;-76
2023/06/16 06:57:52;;;;;;;12.38;10.45;;;19.40;99.90;;;;;;5046446;28;20049;-76
2023/06/16 07:00:18;;;;;;;13.35;11.77;;;19.50;99.90;;;;;;5046461;28;20040;-76
2023/06/16 07:02:43;;;;;;;15.23;12.98;;;19.60;99.90;;;;;;5046431;28;20049;-76
2023/06/16 07:05:09;;;;;;;13.43;12.13;;;19.60;99.90;;;;;;5029752;28;20456;-77
2023/06/16 07:07:35;;;;;;;14.30;12.32;;;19.60;99.90;;;;;;5029872;28;20122;-77
2023/06/16 07:10:01;;;;;;;11.50;10.40;;;19.70;99.90;;;;;;5029688;28;20042;-77
2023/06/16 07:12:27;;;;;;;13.23;11.15;;;19.90;99.90;;;;;;5029814;28;20041;-77
2023/06/16 07:14:52;;;;;;;12.60;11.40;;;19.90;99.90;;;;;;5025787;28;20034;-76
2023/06/16 07:17:18;;;;;;;12.25;10.82;;;20.10;99.90;;;;;;5041148;28;20037;-77
2023/06/16 07:19:44;;;;;;;12.85;10.32;;;20.30;99.90;;;;;;5043588;28;20080;-76
2023/06/16 07:22:09;;;;;;;12.23;10.82;;;20.20;99.90;;;;;;5029300;28;20041;-77
2023/06/16 07:24:35;;;;;;;13.15;10.23;;;20.30;99.90;;;;;;5046360;28;20041;-76
2023/06/16 07:27:01;;;;;;;12.20;9.82;;;20.40;99.90;;;;;;5029350;28;20112;-77
2023/06/16 07:29:28;;;;;;;10.65;9.55;;;20.50;99.90;;;;;;5046372;28;20038;-76
2023/06/16 07:31:53;;;;;;;12.20;10.95;;;20.60;99.90;;;;;;5028813;28;20064;-75
2023/06/16 07:34:19;;;;;;;12.65;9.43;;;20.60;99.90;;;;;;5029629;28;20492;-76
2023/06/16 07:36:45;;;;;;;11.18;9.95;;;20.70;99.90;;;;;;5029221;28;20045;-75
2023/06/16 07:39:10;;;;;;;11.05;9.02;;;20.80;99.90;;;;;;5029239;28;20420;-76
2023/06/16 07:41:36;;;;;;;8.93;8.02;;;20.80;99.90;;;;;;5029605;28;20243;-76
2023/06/16 07:44:02;;;;;;;9.98;7.07;;;20.80;99.90;;;;;;5029434;28;20049;-77
2023/06/16 07:46:28;;;;;;;8.70;6.93;;;20.90;99.90;;;;;;5029439;28;20128;-76
2023/06/16 07:48:54;;;;;;;7.82;6.70;;;20.90;99.90;;;;;;5026803;28;20215;-76
2023/06/16 07:51:22;;;;;;;7.13;6.43;;;21.00;99.90;;;;;;5045280;28;20065;-75
2023/06/16 07:53:48;;;;;;;8.60;7.03;;;21.10;99.90;;;;;;5029619;28;20524;-76
2023/06/16 07:56:15;;;;;;;9.65;6.30;;;21.10;99.90;;;;;;5029423;28;20065;-76
2023/06/16 07:58:40;;;;;;;6.55;5.78;;;21.20;99.90;;;;;;5029424;28;20400;-76
2023/06/16 08:01:06;;;;;;;7.25;6.30;;;21.30;99.90;;;;;;5045387;28;20029;-76
2023/06/16 08:03:32;;;;;;;5.90;5.30;;;21.40;99.90;;;;;;5045747;28;20046;-75
2023/06/16 08:05:58;;;;;;;8.02;5.82;;;21.30;99.90;;;;;;5032772;28;20044;-76
2023/06/16 08:08:27;;;;;;;8.15;5.55;;;21.40;99.90;;;;;;5049364;28;20559;-77
2023/06/16 08:10:56;;;;;;;6.15;4.78;;;21.40;99.90;;;;;;5032739;28;20048;-75
2023/06/16 08:13:23;;;;;;;6.70;4.20;;;21.40;99.90;;;;;;5049262;28;20425;-76
2023/06/16 08:15:49;;;;;;;5.38;3.45;;;21.60;99.90;;;;;;5032798;28;20037;-75
2023/06/16 08:18:17;;;;;;;6.00;3.67;;;21.50;99.30;;;;;;5049116;28;20033;-74
2023/06/16 08:20:44;;;;;;;5.57;3.80;;;21.60;98.90;;;;;;5032070;28;20489;-76
2023/06/16 08:23:10;;;;;;;4.32;3.10;;;21.70;97.50;;;;;;5048687;28;20049;-74
2023/06/16 08:25:35;;;;;;;2.95;2.60;;;21.80;96.50;;;;;;5049061;28;20418;-74
2023/06/16 08:28:03;;;;;;;3.08;2.42;;;21.80;92.40;;;;;;5048902;28;20072;-74
2023/06/16 08:30:28;;;;;;;4.10;2.97;;;21.70;92.60;;;;;;5048544;28;20098;-76
2023/06/16 08:32:54;;;;;;;4.90;2.50;;;21.70;92.00;;;;;;5032032;28;20047;-75
2023/06/16 08:35:20;;;;;;;3.85;2.60;;;21.80;91.00;;;;;;5048825;28;20088;-74
2023/06/16 08:37:45;;;;;;;3.55;2.60;;;21.80;90.70;;;;;;5032377;28;20089;-73
2023/06/16 08:40:12;;;;;;;3.13;2.20;;;21.80;90.30;;;;;;5033337;28;20045;-75
2023/06/16 08:42:38;;;;;;;3.42;2.08;;;21.80;89.80;;;;;;5031894;28;20068;-73
2023/06/16 08:45:06;;;;;;;5.25;1.98;;;21.90;90.20;;;;;;5031905;28;20083;-73
2023/06/16 08:47:31;;;;;;;6.13;2.35;;;22.10;90.20;;;;;;5031873;28;20033;-73
2023/06/16 08:49:57;;;;;;;3.95;2.05;;;22.10;87.00;;;;;;5031714;28;20049;-73
2023/06/16 08:52:23;;;;;;;3.10;2.17;;;22.10;85.50;;;;;;5031479;28;20520;-74
2023/06/16 08:54:57;;;;;;;3.47;2.10;;;22.10;84.40;;;;;;5048697;28;20520;-73
2023/06/16 08:57:23;;;;;;;2.72;1.90;;;22.10;81.40;;;;;;5031353;28;20033;-73
2023/06/16 08:59:53;;;;;;;6.03;2.10;;;22.10;83.70;;;;;;5031698;28;20085;-73
2023/06/16 09:02:20;;;;;;;3.58;2.10;;;22.20;83.40;;;;;;5031823;28;20486;-74
2023/06/16 09:04:46;;;;;;;2.95;1.90;;;22.30;85.80;;;;;;5029908;28;20041;-74
2023/06/16 09:07:16;;;;;;;2.67;2.10;;;22.30;84.00;;;;;;5031446;28;20168;-73
2023/06/16 09:09:42;;;;;;;4.55;2.45;;;22.20;84.90;;;;;;5031596;28;20593;-73
2023/06/16 09:12:11;;;;;;;5.68;2.53;;;22.20;84.60;;;;;;5047384;28;20311;-74
2023/06/16 09:14:38;;;;;;;4.82;2.15;;;22.20;86.50;;;;;;5031207;28;20124;-73
2023/06/16 09:17:05;;;;;;;5.15;2.30;;;22.20;86.70;;;;;;5031087;28;20045;-76
2023/06/16 09:19:35;;;;;;;2.83;2.33;;;22.00;86.70;;;;;;5047197;28;20049;-74
2023/06/16 09:22:02;;;;;;;3.72;2.25;;;22.10;88.40;;;;;;5030945;28;20052;-73
2023/06/16 09:24:28;;;;;;;3.67;2.30;;;22.20;89.10;;;;;;5031142;28;20048;-74
2023/06/16 09:26:59;;;;;;;3.00;2.22;;;22.30;88.00;;;;;;5030003;28;20052;-74
2023/06/16 09:29:26;;;;;;;3.13;2.33;;;22.30;87.90;;;;;;5046040;28;20500;-72
2023/06/16 09:31:52;;;;;;;4.00;2.45;;;22.30;88.30;;;;;;5028737;28;20120;-73
2023/06/16 09:34:18;;;;;;;4.20;2.58;;;22.30;89.30;;;;;;5031624;28;20060;-74
2023/06/16 09:36:44;;;;;;;5.05;2.22;;;22.40;89.90;;;;;;5031109;28;20433;-72
2023/06/16 09:39:26;;;;;;;4.40;2.40;;;22.60;90.20;;;;;;5029657;28;20048;-72
2023/06/16 09:41:53;;;;;;;9.05;2.20;;;22.50;88.80;;;;;;5031136;28;20056;-72
2023/06/16 09:44:21;;;;;;;3.90;2.30;;;22.50;89.00;;;;;;5031393;28;20041;-72
2023/06/16 09:46:50;;;;;;;2.47;1.83;;;22.50;89.10;;;;;;5023195;28;20041;-74
2023/06/16 09:49:20;;;;;;;6.80;2.78;;;22.70;90.20;;;;;;5029001;28;20045;-73
2023/06/16 09:51:54;;;;;;;3.47;2.30;;;22.80;89.80;;;;;;5044970;28;20127;-73
2023/06/16 09:54:20;;;;;;;;;;;22.80;89.30;;;;;;5029162;28;20033;-73
2023/06/16 09:56:46;;;;;;;6.70;2.83;;;22.80;86.90;;;;;;5030179;28;19917;-73
2023/06/16 09:59:12;;;;;;;4.53;3.08;;;22.80;89.00;;;;;;5028243;28;20041;-73
2023/06/16 10:01:43;;;;;;;2.88;2.10;;;22.80;88.80;;;;;;5029498;28;20041;-72
2023/06/16 10:04:09;;;;;;;4.05;2.20;;;22.90;89.40;;;;;;5030501;28;20072;-74
2023/06/16 10:06:40;;;;;;;7.35;2.70;;;23.10;88.90;;;;;;5030559;28;20087;-73
2023/06/16 10:09:07;;;;;;;4.53;2.63;;;23.00;87.20;;;;;;5030362;28;20037;-72
2023/06/16 10:11:34;;;;;;;4.57;2.60;;;23.10;87.20;;;;;;5030156;28;20033;-73
2023/06/16 10:14:02;;;;;;;4.05;2.40;;;23.10;87.50;;;;;;5046494;28;20432;-72
2023/06/16 10:16:31;;;;;;;3.08;2.25;;;23.20;87.10;;;;;;5030509;28;20041;-73
2023/06/16 10:19:02;;;;;;;3.30;2.60;;;23.20;86.70;;;;;;5030512;28;20042;-73
2023/06/16 10:21:28;;;;;;;3.67;2.25;;;23.40;85.80;;;;;;5030084;28;20029;-72
2023/06/16 10:23:54;;;;;;;2.88;2.42;;;23.30;84.60;;;;;;5030204;28;20041;-73
2023/06/16 10:26:20;;;;;;;4.13;2.10;;;23.20;84.10;;;;;;5030266;28;20113;-72
2023/06/16 10:28:47;;;;;;;5.40;2.28;;;23.30;85.00;;;;;;5029245;28;20112;-74
2023/06/16 10:31:14;;;;;;;4.28;2.40;;;23.30;83.00;;;;;;5029815;28;20511;-73
2023/06/16 10:33:59;;;;;;;8.23;2.75;;;23.30;83.60;;;;;;5030032;28;20098;-73
2023/06/16 10:36:31;;;;;;;5.90;2.50;;;23.40;83.40;;;;;;5046861;28;20516;-74
2023/06/16 10:38:58;;;;;;;4.20;2.30;;;23.40;83.20;;;;;;5029994;28;20041;-73
2023/06/16 10:41:25;;;;;;;4.20;2.40;;;23.50;83.60;;;;;;5029559;28;20084;-73
2023/06/16 10:43:51;;;;;;;4.97;2.85;;;23.60;84.00;;;;;;5046564;28;20066;-73
2023/06/16 10:46:18;;;;;;;5.57;2.80;;;23.60;83.10;;;;;;5046510;28;20037;-73
2023/06/16 10:49:07;;;;;;;3.85;2.78;;;23.60;82.90;;;;;;5029825;28;20037;-73
2023/06/16 10:51:48;;;;;;;5.32;2.60;;;23.70;82.80;;;;;;5031122;28;20112;-73
2023/06/16 10:54:16;;;;;;;5.22;2.40;;;23.90;83.40;;;;;;5029443;28;20041;-73
2023/06/16 10:57:00;;;;;;;4.53;2.60;;;23.80;82.40;;;;;;5029766;28;20493;-73
2023/06/16 10:59:26;;;;;;;8.13;2.72;;;23.90;83.40;;;;;;5029768;28;20084;-72
2023/06/16 11:01:56;;;;;;;4.20;2.60;;;24.10;83.60;;;;;;5029375;28;20517;-73
2023/06/16 11:04:22;;;;;;;4.18;2.58;;;24.10;82.50;;;;;;5029996;28;20041;-71
2023/06/16 11:07:03;;;;;;;4.43;2.85;;;24.10;82.80;;;;;;5029521;28;20408;-73
2023/06/16 11:09:29;;;;;;;4.03;2.45;;;24.20;82.60;;;;;;5022982;28;20037;-73
2023/06/16 11:12:02;;;;;;;5.13;2.50;;;24.20;80.90;;;;;;5029128;28;20041;-71
2023/06/16 11:14:28;;;;;;;4.32;2.58;;;24.40;81.90;;;;;;5023124;28;20401;-73
2023/06/16 11:16:55;;;;;;;3.40;2.45;;;24.40;81.80;;;;;;5045960;28;20500;-73
2023/06/16 11:19:20;;;;;;;5.55;2.65;;;24.50;80.80;;;;;;5030559;28;20057;-72
2023/06/16 11:21:46;;;;;;;4.65;2.30;;;24.40;80.60;;;;;;5045638;28;20045;-72
2023/06/16 11:24:13;;;;;;;3.45;2.33;;;24.60;81.50;;;;;;5029184;28;20049;-73
2023/06/16 11:26:39;;;;;;;3.55;2.17;;;24.80;80.80;;;;;;5029487;28;20202;-73
2023/06/16 11:29:06;;;;;;;7.68;2.65;;;24.80;80.00;;;;;;5029279;28;20037;-73
2023/06/16 11:31:35;;;;;;;4.47;2.28;;;25.00;79.80;;;;;;5028971;28;20072;-72
2023/06/16 11:34:04;;;;;;;2.88;2.10;;;24.90;80.20;;;;;;5029375;28;20053;-73
2023/06/16 11:36:32;;;;;;;5.35;2.00;;;25.00;79.10;;;;;;5029574;28;20155;-74
2023/06/16 11:39:00;;;;;;;6.40;2.20;;;25.10;79.20;;;;;;5031641;28;20416;-73
2023/06/16 11:41:27;;;;;;;3.60;2.25;;;25.00;78.70;;;;;;5033139;28;20049;-73
2023/06/16 11:43:53;;;;;;;5.00;2.30;;;25.00;77.30;;;;;;5049811;28;20033;-74
2023/06/16 11:46:24;;;;;;;4.72;2.40;;;25.10;79.10;;;;;;5033602;28;20409;-73
2023/06/16 11:48:53;;;;;;;3.47;2.15;;;25.40;79.90;;;;;;5033378;28;20037;-74
2023/06/16 11:51:20;;;;;;;5.50;2.42;;;25.40;77.60;;;;;;5032806;28;20078;-70
2023/06/16 11:53:47;;;;;;;3.63;2.10;;;25.10;78.30;;;;;;5049808;28;20409;-74
2023/06/16 11:56:14;;;;;;;4.30;2.15;;;25.20;79.10;;;;;;5033092;28;20124;-74
2023/06/16 11:58:45;;;;;;;3.13;2.05;;;25.10;78.30;;;;;;5033309;28;20065;-73
2023/06/16 12:01:15;;;;;;;3.80;2.30;;;25.20;80.10;;;;;;5034071;28;20049;-73
2023/06/16 12:03:42;;;;;;;4.25;2.13;;;25.40;80.10;;;;;;5033174;28;20056;-74
2023/06/16 12:06:09;;;;;;;3.47;2.25;;;25.40;80.30;;;;;;5033103;28;20042;-72
2023/06/16 12:08:45;;;;;;;3.40;2.15;;;25.50;80.40;;;;;;5033156;28;20459;-73
2023/06/16 12:11:30;;;;;;;4.32;2.45;;;25.70;81.30;;;;;;5032393;28;20041;-74
2023/06/16 12:13:57;;;;;;;5.20;2.20;;;25.70;81.00;;;;;;5049452;28;20048;-74
2023/06/16 12:16:23;;;;;;;5.97;2.25;;;26.20;80.80;;;;;;5045456;28;20030;-73
2023/06/16 12:18:52;;;;;;;4.68;2.08;;;25.90;78.60;;;;;;5030741;28;20456;-73
2023/06/16 12:21:21;;;;;;;3.65;2.10;;;26.20;80.50;;;;;;5049005;28;20112;-75
2023/06/16 12:23:54;;;;;;;4.50;2.20;;;26.40;79.70;;;;;;5032544;28;20049;-73
2023/06/16 12:26:33;;;;;;;3.55;2.30;;;26.30;80.10;;;;;;5032674;28;20120;-73
2023/06/16 12:29:07;;;;;;;3.95;2.00;;;26.30;79.70;;;;;;5049238;28;20159;-73
2023/06/16 12:31:33;;;;;;;3.75;2.40;;;26.10;79.70;;;;;;5048687;28;20075;-73
2023/06/16 12:33:58;;;;;;;3.95;2.33;;;26.00;79.10;;;;;;5032421;28;20440;-74
2023/06/16 12:36:25;;;;;;;4.88;2.20;;;26.00;78.00;;;;;;5048890;28;20048;-74
2023/06/16 12:38:53;;;;;;;3.38;2.10;;;26.00;79.00;;;;;;5049176;28;20396;-74
2023/06/16 12:41:19;;;;;;;4.80;2.50;;;26.10;80.30;;;;;;5023972;28;20041;-74